High Barnet, United Kingdom
Current Conditions -  °F | °C
As of 7:50 AM on Wednesday 22 Oct 2014 (Local Time) from EGWU Reporting Station
Clear Clear  
Wind Chill: 37°   Ceiling: Unl
Heat Index: 43°   Visibility: 6mi
Dew Point: 39°   Wind: 9mph
Humidity: 87%   Direction: 270°W
Pressure: 30.24"   Gusts: NA
Location:  51.66°N, 0.21°W
Report Text: EGWU 220650Z 27008KT CAVOK 06/04 Q1024 BLU NOSIG
Loading
Personal Weather Stations






























Interactive Weather Map
Tropical Storm Tracking
New forecast layout! Learn more

10-Day Weather Forecast

Advertisements
Track Severe Weather on mobile